createdAt,value
2023-02-13T00:00:25.360Z,0.00
2023-02-13T00:01:25.642Z,0.00
2023-02-13T00:02:25.862Z,1.00
2023-02-13T00:03:26.214Z,0.00
2023-02-13T00:04:26.401Z,0.00
2023-02-13T00:05:26.754Z,0.00
2023-02-13T00:06:27.103Z,0.00
2023-02-13T00:07:27.398Z,0.00
2023-02-13T00:08:27.644Z,0.00
2023-02-13T00:09:28.073Z,0.00
2023-02-13T00:10:28.327Z,0.00
2023-02-13T00:11:28.520Z,1.00
2023-02-13T00:12:28.939Z,0.00
2023-02-13T00:13:29.137Z,0.00
2023-02-13T00:14:29.453Z,0.00
2023-02-13T00:15:29.814Z,0.00
2023-02-13T00:16:30.071Z,0.00
2023-02-13T00:17:31.302Z,0.00
2023-02-13T00:18:30.752Z,0.00
2023-02-13T00:19:30.961Z,0.00
2023-02-13T00:20:31.307Z,0.00
2023-02-13T00:21:31.606Z,0.00
2023-02-13T00:22:31.955Z,0.00
2023-02-13T00:23:32.177Z,0.00
2023-02-13T00:24:32.467Z,0.00
2023-02-13T00:25:32.863Z,0.00
2023-02-13T00:26:33.046Z,0.00
2023-02-13T00:27:33.458Z,0.00
2023-02-13T00:28:33.755Z,0.00
2023-02-13T00:29:34.018Z,0.00
2023-02-13T00:30:34.200Z,0.00
2023-02-13T00:31:34.741Z,0.00
2023-02-13T00:32:34.857Z,0.00
2023-02-13T00:33:35.112Z,0.00
2023-02-13T00:34:35.313Z,0.00
2023-02-13T00:35:35.651Z,0.00
2023-02-13T00:36:35.906Z,0.00
2023-02-13T00:37:36.260Z,0.00
2023-02-13T00:38:36.676Z,0.00
2023-02-13T00:39:36.850Z,0.00
2023-02-13T00:40:37.234Z,0.00
2023-02-13T00:41:37.418Z,0.00
2023-02-13T00:42:37.720Z,0.00
2023-02-13T00:43:38.052Z,0.00
2023-02-13T00:44:38.429Z,0.00
2023-02-13T00:45:38.683Z,0.00
2023-02-13T00:46:39.060Z,0.00
2023-02-13T00:47:39.183Z,0.00
2023-02-13T00:48:39.393Z,0.00
2023-02-13T00:49:39.730Z,0.00
2023-02-13T00:50:40.055Z,0.00
2023-02-13T00:51:40.349Z,0.00
2023-02-13T00:52:40.716Z,0.00
2023-02-13T00:53:41.048Z,0.00
2023-02-13T00:54:41.377Z,0.00
2023-02-13T00:55:41.722Z,0.00
2023-02-13T00:56:41.910Z,0.00
2023-02-13T00:57:42.204Z,0.00
2023-02-13T00:58:42.610Z,0.00
2023-02-13T00:59:42.828Z,0.00
2023-02-13T01:00:43.204Z,0.00
2023-02-13T01:01:43.397Z,0.00
2023-02-13T01:02:43.822Z,0.00
2023-02-13T01:03:44.030Z,0.00
2023-02-13T01:04:44.318Z,0.00
2023-02-13T01:05:44.503Z,0.00
2023-02-13T01:06:44.843Z,0.00
2023-02-13T01:07:45.052Z,0.00
2023-02-13T01:08:45.374Z,0.00
2023-02-13T01:09:45.726Z,0.00
2023-02-13T01:10:46.083Z,0.00
2023-02-13T01:11:46.292Z,0.00
2023-02-13T01:12:46.525Z,0.00
2023-02-13T01:13:47.086Z,0.00
2023-02-13T01:14:47.155Z,0.00
2023-02-13T01:15:47.363Z,0.00
2023-02-13T01:16:47.707Z,0.00
2023-02-13T01:17:47.887Z,0.00
2023-02-13T01:18:48.226Z,0.00
2023-02-13T01:19:48.525Z,0.00
2023-02-13T01:20:48.903Z,0.00
2023-02-13T01:21:49.119Z,0.00
2023-02-13T01:22:49.428Z,0.00
2023-02-13T01:23:49.698Z,0.00
2023-02-13T01:24:50.060Z,0.00
2023-02-13T01:25:50.287Z,0.00
2023-02-13T01:26:50.684Z,0.00
2023-02-13T01:27:50.875Z,0.00
2023-02-13T01:28:51.235Z,0.00
2023-02-13T01:29:51.470Z,0.00
2023-02-13T01:30:51.706Z,0.00
2023-02-13T01:31:52.072Z,0.00
2023-02-13T01:32:52.244Z,0.00
2023-02-13T01:33:52.427Z,0.00
2023-02-13T01:34:52.739Z,0.00
2023-02-13T01:35:52.910Z,1.00
2023-02-13T01:36:53.273Z,0.00
2023-02-13T01:37:53.549Z,0.00
2023-02-13T01:38:53.953Z,0.00
2023-02-13T01:39:54.255Z,0.00
2023-02-13T01:40:54.631Z,0.00
2023-02-13T01:41:54.818Z,0.00
2023-02-13T01:42:55.218Z,0.00
2023-02-13T01:43:55.463Z,0.00
2023-02-13T01:44:55.646Z,0.00
2023-02-13T01:45:56.008Z,0.00
2023-02-13T01:46:56.211Z,0.00
2023-02-13T01:47:56.484Z,0.00
2023-02-13T01:48:56.918Z,0.00
2023-02-13T01:49:57.088Z,0.00
2023-02-13T01:50:57.712Z,0.00
2023-02-13T01:51:57.749Z,0.00
2023-02-13T01:52:58.078Z,0.00
2023-02-13T01:53:58.407Z,0.00
2023-02-13T01:54:58.806Z,0.00
2023-02-13T01:55:59.123Z,0.00
2023-02-13T01:56:59.322Z,0.00
2023-02-13T01:58:00.484Z,0.00
2023-02-13T01:59:00.031Z,0.00
2023-02-13T02:00:00.240Z,0.00
2023-02-13T02:01:00.563Z,0.00
2023-02-13T02:02:00.964Z,0.00
2023-02-13T02:03:01.234Z,0.00
2023-02-13T02:04:01.603Z,0.00
2023-02-13T02:05:01.804Z,0.00
2023-02-13T02:06:02.092Z,0.00
2023-02-13T02:07:02.480Z,0.00
2023-02-13T02:08:02.814Z,0.00
2023-02-13T02:09:03.145Z,0.00
2023-02-13T02:10:03.336Z,0.00
2023-02-13T02:11:03.688Z,0.00
2023-02-13T02:12:04.095Z,0.00
2023-02-13T02:13:04.295Z,0.00
2023-02-13T02:14:04.682Z,0.00
2023-02-13T02:15:04.865Z,0.00
2023-02-13T02:16:05.382Z,0.00
2023-02-13T02:17:05.538Z,0.00
2023-02-13T02:18:05.860Z,0.00
2023-02-13T02:19:06.219Z,0.00
2023-02-13T02:20:06.436Z,0.00
2023-02-13T02:21:06.785Z,0.00
2023-02-13T02:22:06.994Z,0.00
2023-02-13T02:23:07.333Z,0.00
2023-02-13T02:24:07.569Z,0.00
2023-02-13T02:25:07.825Z,0.00
2023-02-13T02:26:07.970Z,0.00
2023-02-13T02:27:08.367Z,0.00
2023-02-13T02:28:08.556Z,0.00
2023-02-13T02:29:08.916Z,0.00
2023-02-13T02:30:09.064Z,0.00
2023-02-13T02:31:09.516Z,0.00
2023-02-13T02:32:09.830Z,0.00
2023-02-13T02:33:10.045Z,0.00
2023-02-13T02:34:10.248Z,0.00
2023-02-13T02:35:10.605Z,0.00
2023-02-13T02:36:10.792Z,0.00
2023-02-13T02:37:11.255Z,0.00
2023-02-13T02:38:11.346Z,0.00
2023-02-13T02:39:11.682Z,0.00
2023-02-13T02:40:11.962Z,0.00
2023-02-13T02:41:12.143Z,0.00
2023-02-13T02:42:12.449Z,0.00
2023-02-13T02:43:12.833Z,0.00
2023-02-13T02:44:13.071Z,0.00
2023-02-13T02:45:13.758Z,0.00
2023-02-13T02:46:13.568Z,0.00
2023-02-13T02:47:13.787Z,0.00
2023-02-13T02:48:14.045Z,0.00
2023-02-13T02:49:14.307Z,0.00
2023-02-13T02:50:14.559Z,0.00
2023-02-13T02:51:14.773Z,0.00
2023-02-13T02:52:15.130Z,0.00
2023-02-13T02:53:15.322Z,0.00
2023-02-13T02:54:15.654Z,0.00
2023-02-13T02:55:16.024Z,0.00
2023-02-13T02:56:16.247Z,0.00
2023-02-13T02:57:16.558Z,0.00
2023-02-13T02:58:16.866Z,0.00
2023-02-13T02:59:17.187Z,0.00
2023-02-13T03:00:17.465Z,1.00
2023-02-13T03:01:17.911Z,0.00
2023-02-13T03:02:18.121Z,0.00
2023-02-13T03:03:18.456Z,0.00
2023-02-13T03:04:19.228Z,0.00
2023-02-13T03:05:19.088Z,0.00
2023-02-13T03:06:19.310Z,0.00
2023-02-13T03:07:19.657Z,0.00
2023-02-13T03:08:19.906Z,0.00
2023-02-13T03:09:20.130Z,0.00
2023-02-13T03:10:20.432Z,0.00
2023-02-13T03:11:20.837Z,0.00
2023-02-13T03:12:21.067Z,0.00
2023-02-13T03:13:21.330Z,0.00
2023-02-13T03:14:21.625Z,0.00
2023-02-13T03:15:21.912Z,0.00
2023-02-13T03:16:22.141Z,0.00
2023-02-13T03:17:22.352Z,0.00
2023-02-13T03:18:22.657Z,0.00
2023-02-13T03:19:22.983Z,0.00
2023-02-13T03:20:23.305Z,0.00
2023-02-13T03:21:23.621Z,0.00
2023-02-13T03:22:23.975Z,0.00
2023-02-13T03:23:24.323Z,0.00
2023-02-13T03:24:24.621Z,0.00
2023-02-13T03:25:24.987Z,0.00
2023-02-13T03:26:25.186Z,0.00
2023-02-13T03:27:25.508Z,0.00
2023-02-13T03:28:25.865Z,0.00
2023-02-13T03:29:26.116Z,0.00
2023-02-13T03:30:26.480Z,0.00
2023-02-13T03:31:26.771Z,0.00
2023-02-13T03:32:26.956Z,0.00
2023-02-13T03:33:27.275Z,0.00
2023-02-13T03:34:27.606Z,0.00
2023-02-13T03:35:27.857Z,0.00
2023-02-13T03:36:28.058Z,0.00
2023-02-13T03:37:28.368Z,0.00
2023-02-13T03:38:28.706Z,0.00
2023-02-13T03:39:28.965Z,0.00
2023-02-13T03:40:29.117Z,0.00
2023-02-13T03:41:29.751Z,0.00
2023-02-13T03:42:30.178Z,0.00
2023-02-13T03:43:30.149Z,0.00
2023-02-13T03:44:30.334Z,0.00
2023-02-13T03:45:30.650Z,0.00
2023-02-13T03:46:30.956Z,0.00
2023-02-13T03:47:31.210Z,0.00
2023-02-13T03:48:31.562Z,0.00
2023-02-13T03:49:31.813Z,0.00
2023-02-13T03:50:31.992Z,0.00
2023-02-13T03:51:32.405Z,0.00
2023-02-13T03:52:32.669Z,0.00
2023-02-13T03:53:32.867Z,0.00
2023-02-13T03:54:33.185Z,0.00
2023-02-13T03:55:33.499Z,0.00
2023-02-13T03:56:33.909Z,0.00
2023-02-13T03:57:34.124Z,0.00
2023-02-13T03:58:34.359Z,0.00
2023-02-13T03:59:34.755Z,0.00
2023-02-13T04:00:34.943Z,0.00
2023-02-13T04:01:35.316Z,0.00
2023-02-13T04:02:35.480Z,0.00
2023-02-13T04:03:35.800Z,0.00
2023-02-13T04:04:36.155Z,0.00
2023-02-13T04:05:36.329Z,0.00
2023-02-13T04:06:36.646Z,0.00
2023-02-13T04:07:36.951Z,0.00
2023-02-13T04:08:37.277Z,0.00
2023-02-13T04:09:37.609Z,0.00
2023-02-13T04:10:37.887Z,0.00
2023-02-13T04:11:38.196Z,0.00
2023-02-13T04:12:38.526Z,0.00
2023-02-13T04:13:38.939Z,0.00
2023-02-13T04:14:39.123Z,0.00
2023-02-13T04:15:39.495Z,0.00
2023-02-13T04:16:39.744Z,0.00
2023-02-13T04:17:39.937Z,0.00
2023-02-13T04:18:40.261Z,0.00
2023-02-13T04:19:40.656Z,0.00
2023-02-13T04:20:41.300Z,0.00
2023-02-13T04:21:41.198Z,0.00
2023-02-13T04:22:41.508Z,0.00
2023-02-13T04:23:41.885Z,0.00
2023-02-13T04:24:42.088Z,0.00
2023-02-13T04:25:42.409Z,0.00
2023-02-13T04:26:42.682Z,0.00
2023-02-13T04:27:43.043Z,0.00
2023-02-13T04:28:43.389Z,0.00
2023-02-13T04:29:43.622Z,0.00
2023-02-13T04:30:43.981Z,0.00
2023-02-13T04:31:44.195Z,0.00
2023-02-13T04:32:44.396Z,0.00
2023-02-13T04:33:44.764Z,0.00
2023-02-13T04:34:44.936Z,0.00
2023-02-13T04:35:45.309Z,0.00
2023-02-13T04:36:45.504Z,0.00
2023-02-13T04:37:45.884Z,0.00
2023-02-13T04:38:46.227Z,0.00
2023-02-13T04:39:46.434Z,0.00
2023-02-13T04:40:46.685Z,1.00
2023-02-13T04:41:47.088Z,0.00
2023-02-13T04:42:47.300Z,0.00
2023-02-13T04:43:47.626Z,0.00
2023-02-13T04:44:47.935Z,0.00
2023-02-13T04:45:48.280Z,0.00
2023-02-13T04:46:48.516Z,0.00
2023-02-13T04:47:48.916Z,0.00
2023-02-13T04:48:49.181Z,0.00
2023-02-13T04:49:49.516Z,0.00
2023-02-13T04:50:49.869Z,0.00
2023-02-13T04:51:50.219Z,0.00
2023-02-13T04:52:50.455Z,0.00
2023-02-13T04:53:50.780Z,0.00
2023-02-13T04:54:51.026Z,0.00
2023-02-13T04:55:51.421Z,0.00
2023-02-13T04:56:51.756Z,0.00
2023-02-13T04:57:51.994Z,0.00
2023-02-13T04:58:52.207Z,0.00
2023-02-13T04:59:52.527Z,0.00
2023-02-13T05:00:52.739Z,1.00
2023-02-13T05:01:53.132Z,0.00
2023-02-13T05:02:53.341Z,0.00
2023-02-13T05:03:53.687Z,0.00
2023-02-13T05:04:54.017Z,0.00
2023-02-13T05:05:54.710Z,0.00
2023-02-13T05:06:54.593Z,0.00
2023-02-13T05:07:55.002Z,0.00
2023-02-13T05:08:55.208Z,0.00
2023-02-13T05:09:55.458Z,0.00
2023-02-13T05:10:56.189Z,0.00
2023-02-13T05:11:56.151Z,0.00
2023-02-13T05:12:56.298Z,1.00
2023-02-13T05:13:56.703Z,0.00
2023-02-13T05:14:56.889Z,0.00
2023-02-13T05:15:57.236Z,0.00
2023-02-13T05:16:57.422Z,0.00
2023-02-13T05:17:57.745Z,0.00
2023-02-13T05:18:58.057Z,0.00
2023-02-13T05:19:58.367Z,0.00
2023-02-13T05:20:58.983Z,0.00
2023-02-13T05:21:58.979Z,1.00
2023-02-13T05:22:59.300Z,0.00
2023-02-13T05:23:59.629Z,0.00
2023-02-13T05:24:59.832Z,0.00
2023-02-13T05:26:00.230Z,0.00
2023-02-13T05:27:00.511Z,0.00
2023-02-13T05:28:00.924Z,0.00
2023-02-13T05:29:01.105Z,0.00
2023-02-13T05:30:01.405Z,0.00
2023-02-13T05:31:02.084Z,0.00
2023-02-13T05:32:01.952Z,0.00
2023-02-13T05:33:02.161Z,0.00
2023-02-13T05:34:02.475Z,0.00
2023-02-13T05:35:04.580Z,0.00
2023-02-13T05:36:03.062Z,0.00
2023-02-13T05:37:03.359Z,0.00
2023-02-13T05:38:03.671Z,1.00
2023-02-13T05:39:03.962Z,0.00
2023-02-13T05:40:04.302Z,0.00
2023-02-13T05:41:04.606Z,0.00
2023-02-13T05:42:04.935Z,0.00
2023-02-13T05:43:05.154Z,0.00
2023-02-13T05:44:05.511Z,0.00
2023-02-13T05:45:06.217Z,0.00
2023-02-13T05:46:06.135Z,0.00
2023-02-13T05:47:06.449Z,0.00
2023-02-13T05:48:06.750Z,0.00
2023-02-13T05:49:06.853Z,0.00
2023-02-13T05:50:07.038Z,0.00
2023-02-13T05:51:07.354Z,0.00
2023-02-13T05:52:07.662Z,0.00
2023-02-13T05:53:08.040Z,0.00
2023-02-13T05:54:08.335Z,0.00
2023-02-13T05:55:08.720Z,0.00
2023-02-13T05:56:09.097Z,0.00
2023-02-13T05:57:09.300Z,0.00
2023-02-13T05:58:09.640Z,0.00
2023-02-13T05:59:09.862Z,0.00
2023-02-13T06:00:10.194Z,0.00
2023-02-13T06:01:10.434Z,0.00
2023-02-13T06:02:10.686Z,0.00
2023-02-13T06:03:10.960Z,0.00
2023-02-13T06:04:11.313Z,0.00
2023-02-13T06:05:11.555Z,1.00
2023-02-13T06:06:11.815Z,1.00
2023-02-13T06:07:12.082Z,1.00
2023-02-13T06:08:12.424Z,0.00
2023-02-13T06:09:12.638Z,0.00
2023-02-13T06:10:12.962Z,0.00
2023-02-13T06:11:13.252Z,1.00
2023-02-13T06:12:13.527Z,1.00
2023-02-13T06:13:13.857Z,0.00
2023-02-13T06:14:14.158Z,2.00
2023-02-13T06:15:14.389Z,1.00
2023-02-13T06:16:14.684Z,2.00
2023-02-13T06:17:14.923Z,3.00
2023-02-13T06:18:15.222Z,1.00
2023-02-13T06:19:15.485Z,1.00
2023-02-13T06:20:15.688Z,1.00
2023-02-13T06:21:15.932Z,2.00
2023-02-13T06:22:16.188Z,2.00
2023-02-13T06:23:16.458Z,3.00
2023-02-13T06:24:16.740Z,3.00
2023-02-13T06:25:16.959Z,4.00
2023-02-13T06:26:17.338Z,5.00
2023-02-13T06:27:17.569Z,4.00
2023-02-13T06:28:17.886Z,7.00
2023-02-13T06:29:18.147Z,13.00
2023-02-13T06:30:18.478Z,10.00
2023-02-13T06:31:18.778Z,11.00
2023-02-13T06:32:19.010Z,18.00
2023-02-13T06:33:19.274Z,20.00
2023-02-13T06:34:19.589Z,21.00
2023-02-13T06:35:19.823Z,25.00
2023-02-13T06:36:20.151Z,29.00
2023-02-13T06:37:20.428Z,36.00
2023-02-13T06:38:20.734Z,38.00
2023-02-13T06:39:20.927Z,41.00
2023-02-13T06:40:21.185Z,45.00
2023-02-13T06:41:21.510Z,51.00
2023-02-13T06:42:21.722Z,59.00
2023-02-13T06:43:21.970Z,68.00
2023-02-13T06:44:22.222Z,68.00
2023-02-13T06:45:22.494Z,72.00
2023-02-13T06:46:22.807Z,80.00
2023-02-13T06:47:23.044Z,86.00
2023-02-13T06:48:24.001Z,92.00
2023-02-13T06:49:23.653Z,103.00
2023-02-13T06:50:23.924Z,104.00
2023-02-13T06:51:24.238Z,114.00
2023-02-13T06:52:24.503Z,114.00
2023-02-13T06:53:24.887Z,127.00
2023-02-13T06:54:41.048Z,135.00
2023-02-13T06:55:26.387Z,145.00
2023-02-13T06:56:25.702Z,151.00
2023-02-13T06:57:26.020Z,160.00
2023-02-13T06:58:26.268Z,171.00
2023-02-13T06:59:26.531Z,177.00
2023-02-13T07:00:27.153Z,187.00
2023-02-13T07:01:27.144Z,198.00
2023-02-13T07:02:27.584Z,204.00
2023-02-13T07:03:27.614Z,214.00
2023-02-13T07:04:27.905Z,220.00
2023-02-13T07:05:28.184Z,234.00
2023-02-13T07:06:28.468Z,240.00
2023-02-13T07:07:29.139Z,247.00
2023-02-13T07:08:29.033Z,261.00
2023-02-13T07:09:29.348Z,272.00
2023-02-13T07:10:29.580Z,279.00
2023-02-13T07:11:29.875Z,295.00
2023-02-13T07:12:30.142Z,301.00
2023-02-13T07:13:30.379Z,310.00
2023-02-13T07:14:30.660Z,323.00
2023-02-13T07:15:30.970Z,329.00
2023-02-13T07:16:31.353Z,337.00
2023-02-13T07:17:31.553Z,349.00
2023-02-13T07:18:31.883Z,356.00
2023-02-13T07:19:32.097Z,363.00
2023-02-13T07:20:32.369Z,366.00
2023-02-13T07:21:32.647Z,371.00
2023-02-13T07:22:32.918Z,374.00
2023-02-13T07:23:33.220Z,372.00
2023-02-13T07:24:33.492Z,374.00
2023-02-13T07:25:34.095Z,371.00
2023-02-13T07:26:34.094Z,372.00
2023-02-13T07:27:34.350Z,374.00
2023-02-13T07:28:34.693Z,360.00
2023-02-13T07:29:34.882Z,350.00
2023-02-13T07:30:35.222Z,283.00
2023-02-13T07:31:35.500Z,369.00
2023-02-13T07:32:35.933Z,493.00
2023-02-13T07:33:36.055Z,607.00
2023-02-13T07:34:36.317Z,671.00
2023-02-13T07:35:36.592Z,711.00
2023-02-13T07:36:36.846Z,744.00
2023-02-13T07:37:37.090Z,759.00
2023-02-13T07:38:37.405Z,769.00
2023-02-13T07:39:37.689Z,797.00
2023-02-13T07:40:37.960Z,822.00
2023-02-13T07:41:38.254Z,825.00
2023-02-13T07:42:38.539Z,809.00
2023-02-13T07:43:38.834Z,826.00
2023-02-13T07:44:39.096Z,858.00
2023-02-13T07:45:39.408Z,853.00
2023-02-13T07:46:39.761Z,857.00
2023-02-13T07:47:39.960Z,857.00
2023-02-13T07:48:40.266Z,840.00
2023-02-13T07:49:40.502Z,841.00
2023-02-13T07:50:40.786Z,817.00
2023-02-13T07:51:41.113Z,818.00
2023-02-13T07:52:41.389Z,858.00
2023-02-13T07:53:41.611Z,925.00
2023-02-13T07:54:41.899Z,972.00
2023-02-13T07:55:42.174Z,1064.00
2023-02-13T07:56:42.534Z,1026.00
2023-02-13T07:57:42.761Z,1105.00
2023-02-13T07:58:43.023Z,1109.00
2023-02-13T07:59:43.331Z,1145.00
2023-02-13T08:00:43.577Z,1113.00
2023-02-13T08:01:43.921Z,1303.00
2023-02-13T08:02:44.143Z,1466.00
2023-02-13T08:03:44.435Z,1502.00
2023-02-13T08:04:44.688Z,1750.00
2023-02-13T08:05:45.031Z,2000.00
2023-02-13T08:06:45.323Z,2332.00
2023-02-13T08:07:45.578Z,3193.00
2023-02-13T08:08:45.840Z,3662.00
2023-02-13T08:09:46.159Z,3668.00
2023-02-13T08:10:46.398Z,4637.00
2023-02-13T08:11:46.653Z,5713.00
2023-02-13T08:12:46.982Z,6215.00
2023-02-13T08:13:47.224Z,6598.00
2023-02-13T08:14:47.522Z,6619.00
2023-02-13T08:15:47.805Z,5552.00
2023-02-13T08:16:48.413Z,5227.00
2023-02-13T08:17:48.354Z,5026.00
2023-02-13T08:18:48.626Z,4200.00
2023-02-13T08:19:48.890Z,3936.00
2023-02-13T08:20:49.201Z,3874.00
2023-02-13T08:21:49.517Z,3809.00
2023-02-13T08:22:49.807Z,3081.00
2023-02-13T08:23:50.063Z,1492.00
2023-02-13T08:24:50.404Z,1378.00
2023-02-13T08:25:50.662Z,1377.00
2023-02-13T08:26:50.945Z,1335.00
2023-02-13T08:27:51.250Z,1350.00
2023-02-13T08:28:51.525Z,1400.00
2023-02-13T08:29:51.845Z,1380.00
2023-02-13T08:30:52.184Z,1420.00
2023-02-13T08:31:52.514Z,1408.00
2023-02-13T08:32:54.495Z,1396.00
2023-02-13T08:33:53.016Z,1622.00
2023-02-13T08:34:53.322Z,1701.00
2023-02-13T08:35:53.620Z,1437.00
2023-02-13T08:36:53.896Z,1381.00
2023-02-13T08:37:54.134Z,1439.00
2023-02-13T08:38:54.421Z,1420.00
2023-02-13T08:39:54.761Z,1368.00
2023-02-13T08:40:55.249Z,1401.00
2023-02-13T08:41:55.195Z,1388.00
2023-02-13T08:42:57.525Z,1396.00
2023-02-13T08:43:55.766Z,1366.00
2023-02-13T08:44:57.332Z,1385.00
2023-02-13T08:45:56.672Z,1412.00
2023-02-13T08:46:56.652Z,1422.00
2023-02-13T08:47:56.912Z,1397.00
2023-02-13T08:48:57.185Z,1396.00
2023-02-13T08:49:57.475Z,1421.00
2023-02-13T08:50:57.747Z,1442.00
2023-02-13T08:51:58.072Z,1467.00
2023-02-13T08:52:58.440Z,1511.00
2023-02-13T08:53:58.607Z,1511.00
2023-02-13T08:54:58.944Z,1522.00
2023-02-13T08:55:59.499Z,1538.00
2023-02-13T08:56:59.493Z,1568.00
2023-02-13T08:57:59.766Z,1620.00
2023-02-13T08:59:00.079Z,1623.00
2023-02-13T09:00:00.375Z,1539.00
2023-02-13T09:01:00.678Z,1617.00
2023-02-13T09:02:01.073Z,1692.00
2023-02-13T09:03:01.220Z,1689.00
2023-02-13T09:04:01.483Z,1710.00
2023-02-13T09:05:01.850Z,1734.00
2023-02-13T09:06:02.105Z,1722.00
2023-02-13T09:07:02.363Z,1685.00
2023-02-13T09:08:02.741Z,1692.00
2023-02-13T09:09:02.939Z,1661.00
2023-02-13T09:10:03.252Z,1725.00
2023-02-13T09:11:03.594Z,1716.00
2023-02-13T09:12:03.807Z,1721.00
2023-02-13T09:13:04.152Z,1743.00
2023-02-13T09:14:04.340Z,1764.00
2023-02-13T09:15:04.670Z,1770.00
2023-02-13T09:16:05.685Z,1768.00
2023-02-13T09:17:05.240Z,1768.00
2023-02-13T09:18:05.476Z,1792.00
2023-02-13T09:19:05.771Z,1788.00
2023-02-13T09:20:06.041Z,1812.00
2023-02-13T09:21:06.372Z,1816.00
2023-02-13T09:22:06.613Z,1829.00
2023-02-13T09:23:06.872Z,1890.00
2023-02-13T09:24:07.132Z,1897.00
2023-02-13T09:25:07.442Z,1883.00
2023-02-13T09:26:07.680Z,1864.00
2023-02-13T09:27:08.001Z,1898.00
2023-02-13T09:28:08.266Z,1928.00
2023-02-13T09:29:08.511Z,1957.00
2023-02-13T09:30:08.801Z,1935.00
2023-02-13T09:31:09.309Z,1908.00
2023-02-13T09:32:09.382Z,1884.00
2023-02-13T09:33:09.602Z,1808.00
2023-02-13T09:34:09.851Z,1912.00
2023-02-13T09:35:10.132Z,1925.00
2023-02-13T09:36:10.396Z,1913.00
2023-02-13T09:37:10.730Z,1968.00
2023-02-13T09:38:11.050Z,1959.00
2023-02-13T09:39:11.289Z,1980.00
2023-02-13T09:40:11.553Z,2013.00
2023-02-13T09:41:11.871Z,2014.00
2023-02-13T09:42:12.129Z,2017.00
2023-02-13T09:43:12.433Z,2092.00
2023-02-13T09:44:12.730Z,2053.00
2023-02-13T09:45:12.968Z,2112.00
2023-02-13T09:46:13.245Z,2105.00
2023-02-13T09:47:13.525Z,2202.00
2023-02-13T09:48:13.813Z,2476.00
2023-02-13T09:49:14.185Z,2101.00
2023-02-13T09:50:14.382Z,2198.00
2023-02-13T09:51:14.677Z,2211.00
2023-02-13T09:52:14.958Z,2240.00
2023-02-13T09:53:15.234Z,2268.00
2023-02-13T09:54:15.534Z,2253.00
2023-02-13T09:55:15.853Z,2300.00
2023-02-13T09:56:16.129Z,2285.00
2023-02-13T09:57:16.394Z,2208.00
2023-02-13T09:58:16.636Z,2253.00
2023-02-13T09:59:16.917Z,2281.00
2023-02-13T10:00:17.194Z,2241.00
2023-02-13T10:01:17.560Z,2325.00
2023-02-13T10:02:17.832Z,2246.00
2023-02-13T10:03:18.068Z,2303.00
2023-02-13T10:04:18.345Z,2327.00
2023-02-13T10:05:18.677Z,2338.00
2023-02-13T10:06:18.817Z,2237.00
2023-02-13T10:07:19.134Z,2032.00
2023-02-13T10:08:19.420Z,2864.00
2023-02-13T10:09:19.681Z,2346.00
2023-02-13T10:10:19.969Z,2544.00
2023-02-13T10:11:20.217Z,2366.00
2023-02-13T10:12:20.499Z,2403.00
2023-02-13T10:13:22.087Z,2417.00
2023-02-13T10:14:21.107Z,2375.00
2023-02-13T10:15:21.354Z,2400.00
2023-02-13T10:16:21.715Z,2432.00
2023-02-13T10:17:21.999Z,2429.00
2023-02-13T10:18:22.270Z,2476.00
2023-02-13T10:19:22.653Z,2196.00
2023-02-13T10:20:22.824Z,2543.00
2023-02-13T10:21:23.135Z,2531.00
2023-02-13T10:22:23.544Z,2525.00
2023-02-13T10:23:23.732Z,2539.00
2023-02-13T10:24:23.953Z,2530.00
2023-02-13T10:25:24.232Z,2578.00
2023-02-13T10:26:24.570Z,2599.00
2023-02-13T10:27:24.830Z,2623.00
2023-02-13T10:28:25.189Z,2652.00
2023-02-13T10:29:25.457Z,2682.00
2023-02-13T10:30:25.817Z,2720.00
2023-02-13T10:31:26.142Z,2753.00
2023-02-13T10:32:26.359Z,2780.00
2023-02-13T10:33:26.568Z,2787.00
2023-02-13T10:34:26.853Z,2783.00
2023-02-13T10:35:27.943Z,2443.00
2023-02-13T10:36:27.399Z,2845.00
2023-02-13T10:37:27.666Z,2928.00
2023-02-13T10:38:28.083Z,2970.00
2023-02-13T10:39:28.253Z,2895.00
2023-02-13T10:40:28.612Z,2973.00
2023-02-13T10:41:28.830Z,2951.00
2023-02-13T10:42:29.217Z,2980.00
2023-02-13T10:43:29.324Z,3165.00
2023-02-13T10:44:29.659Z,3358.00
2023-02-13T10:45:29.993Z,3035.00
2023-02-13T10:46:30.238Z,4236.00
2023-02-13T10:47:30.545Z,4588.00
2023-02-13T10:48:30.867Z,9991.00
2023-02-13T10:49:31.164Z,16919.00
2023-02-13T10:50:31.500Z,17845.00
2023-02-13T10:51:31.828Z,9818.00
2023-02-13T10:52:32.273Z,77246.00
2023-02-13T10:53:32.416Z,78236.00
2023-02-13T10:54:32.634Z,76659.00
2023-02-13T10:55:32.941Z,77861.00
2023-02-13T10:56:33.278Z,77707.00
2023-02-13T10:57:33.568Z,76705.00
2023-02-13T10:58:33.918Z,76493.00
2023-02-13T10:59:34.183Z,73670.00
2023-02-13T11:00:34.471Z,76078.00
2023-02-13T11:01:34.846Z,14756.00
2023-02-13T11:02:35.080Z,75373.00
2023-02-13T11:03:35.465Z,79966.00
2023-02-13T11:04:35.755Z,78140.00
2023-02-13T11:05:35.994Z,78717.00
2023-02-13T11:06:36.246Z,79996.00
2023-02-13T11:07:39.204Z,76516.00
2023-02-13T11:08:36.908Z,78257.00
2023-02-13T11:09:37.073Z,75398.00
2023-02-13T11:10:37.403Z,74348.00
2023-02-13T11:11:37.699Z,74118.00
2023-02-13T11:12:38.025Z,79257.00
2023-02-13T11:13:38.315Z,78640.00
2023-02-13T11:14:38.645Z,78244.00
2023-02-13T11:15:38.998Z,79068.00
2023-02-13T11:16:39.316Z,78923.00
2023-02-13T11:17:39.563Z,79585.00
2023-02-13T11:18:39.869Z,79826.00
2023-02-13T11:19:40.122Z,76256.00
2023-02-13T11:20:40.439Z,73517.00
2023-02-13T11:21:40.761Z,73737.00
2023-02-13T11:22:41.029Z,75702.00
2023-02-13T11:23:41.326Z,74402.00
2023-02-13T11:24:41.590Z,73621.00
2023-02-13T11:25:41.856Z,73719.00
2023-02-13T11:26:42.133Z,74181.00
2023-02-13T11:27:42.446Z,75303.00
2023-02-13T11:28:42.727Z,79924.00
2023-02-13T11:29:43.003Z,80350.00
2023-02-13T11:30:43.308Z,76237.00
2023-02-13T11:31:43.691Z,74052.00
2023-02-13T11:32:43.855Z,75068.00
2023-02-13T11:33:44.195Z,74471.00
2023-02-13T11:34:44.406Z,73853.00
2023-02-13T11:35:44.685Z,73934.00
2023-02-13T11:36:44.958Z,74292.00
2023-02-13T11:37:45.272Z,78048.00
2023-02-13T11:38:45.560Z,80162.00
2023-02-13T11:39:45.926Z,78707.00
2023-02-13T11:40:46.221Z,80577.00
2023-02-13T11:41:46.557Z,75707.00
2023-02-13T11:42:46.784Z,79627.00
2023-02-13T11:43:47.082Z,75990.00
2023-02-13T11:44:47.378Z,80893.00
2023-02-13T11:45:47.680Z,75049.00
2023-02-13T11:46:48.008Z,18224.00
2023-02-13T11:47:48.306Z,81447.00
2023-02-13T11:48:48.560Z,75271.00
2023-02-13T11:49:48.870Z,18357.00
2023-02-13T11:50:49.121Z,15106.00
2023-02-13T11:51:49.444Z,80640.00
2023-02-13T11:52:49.641Z,78326.00
2023-02-13T11:53:49.930Z,78665.00
2023-02-13T11:54:50.198Z,81766.00
2023-02-13T11:55:50.461Z,78122.00
2023-02-13T11:57:04.108Z,16116.00
2023-02-13T11:57:52.037Z,80933.00
2023-02-13T11:58:51.359Z,80888.00
2023-02-13T11:59:51.655Z,75844.00
2023-02-13T12:00:51.902Z,74851.00
2023-02-13T12:01:52.193Z,74678.00
2023-02-13T12:02:52.565Z,74544.00
2023-02-13T12:03:52.739Z,74821.00
2023-02-13T12:04:52.972Z,74899.00
2023-02-13T12:05:53.268Z,74793.00
2023-02-13T12:06:53.555Z,75112.00
2023-02-13T12:07:53.901Z,75066.00
2023-02-13T12:08:54.165Z,74926.00
2023-02-13T12:09:54.476Z,75409.00
2023-02-13T12:10:54.895Z,75811.00
2023-02-13T12:11:55.028Z,75453.00
2023-02-13T12:12:55.321Z,74960.00
2023-02-13T12:13:55.638Z,74725.00
2023-02-13T12:14:55.937Z,74940.00
2023-02-13T12:15:56.758Z,75002.00
2023-02-13T12:16:56.554Z,74965.00
2023-02-13T12:17:56.894Z,74894.00
2023-02-13T12:18:57.112Z,74862.00
2023-02-13T12:19:57.416Z,74761.00
2023-02-13T12:21:03.145Z,77584.00
2023-02-13T12:21:58.013Z,77705.00
2023-02-13T12:22:58.302Z,74979.00
2023-02-13T12:23:58.639Z,75436.00
2023-02-13T12:24:58.877Z,75708.00
2023-02-13T12:25:59.643Z,75314.00
2023-02-13T12:26:59.418Z,74559.00
2023-02-13T12:27:59.732Z,74389.00
2023-02-13T12:29:00.177Z,74590.00
2023-02-13T12:30:00.240Z,74854.00
2023-02-13T12:31:00.771Z,75166.00
2023-02-13T12:32:00.990Z,75130.00
2023-02-13T12:33:01.088Z,75341.00
2023-02-13T12:34:01.506Z,76110.00
2023-02-13T12:35:01.718Z,79785.00
2023-02-13T12:36:01.981Z,75074.00
2023-02-13T12:37:02.208Z,74890.00
2023-02-13T12:38:02.492Z,74940.00
2023-02-13T12:39:02.757Z,75077.00
2023-02-13T12:40:03.064Z,75023.00
2023-02-13T12:41:03.382Z,75570.00
2023-02-13T12:42:03.689Z,77853.00
2023-02-13T12:43:03.892Z,74820.00
2023-02-13T12:44:04.205Z,75354.00